createdAt,value
2022-12-03T00:03:31.342Z,24.90
2022-12-03T00:08:38.456Z,34.80
2022-12-03T00:13:46.289Z,35.27
2022-12-03T00:18:53.457Z,26.03
2022-12-03T00:24:00.373Z,29.20
2022-12-03T00:29:07.160Z,27.33
2022-12-03T00:34:15.776Z,23.77
2022-12-03T00:39:22.627Z,16.07
2022-12-03T00:44:29.713Z,14.27
2022-12-03T00:49:36.711Z,17.37
2022-12-03T00:54:43.830Z,15.40
2022-12-03T00:59:50.750Z,24.60
2022-12-03T01:04:58.363Z,23.03
2022-12-03T01:10:09.227Z,12.57
2022-12-03T01:15:16.022Z,14.67
2022-12-03T01:20:23.032Z,23.60
2022-12-03T01:25:30.167Z,23.30
2022-12-03T01:30:38.467Z,14.10
2022-12-03T01:35:47.026Z,24.50
2022-12-03T01:40:55.385Z,23.43
2022-12-03T01:46:03.089Z,14.23
2022-12-03T01:51:11.043Z,11.53
2022-12-03T01:56:20.197Z,12.67
2022-12-03T02:01:28.696Z,13.83
2022-12-03T02:06:35.811Z,10.47
2022-12-03T02:11:51.752Z,13.50
2022-12-03T02:16:59.918Z,15.37
2022-12-03T02:22:18.633Z,13.37
2022-12-03T02:27:25.412Z,13.07
2022-12-03T02:32:32.426Z,13.83
2022-12-03T02:37:39.686Z,13.20
2022-12-03T02:42:47.197Z,10.60
2022-12-03T02:48:04.438Z,10.37
2022-12-03T02:53:15.434Z,10.77
2022-12-03T02:58:23.127Z,10.40
2022-12-03T03:03:32.242Z,11.10
2022-12-03T03:08:41.536Z,10.30
2022-12-03T03:13:48.461Z,10.30
2022-12-03T03:18:55.160Z,11.30
2022-12-03T03:24:01.890Z,22.67
2022-12-03T03:29:08.597Z,11.17
2022-12-03T03:34:16.140Z,12.33
2022-12-03T03:39:22.801Z,23.07
2022-12-03T03:44:29.584Z,13.47
2022-12-03T03:49:36.516Z,33.20
2022-12-03T03:54:43.226Z,19.03
2022-12-03T03:59:49.916Z,13.53
2022-12-03T04:04:57.107Z,16.77
2022-12-03T04:10:05.363Z,12.13
2022-12-03T04:15:12.287Z,13.03
2022-12-03T04:20:19.037Z,13.70
2022-12-03T04:25:43.499Z,9.77
2022-12-03T04:30:50.238Z,11.70
2022-12-03T04:35:56.934Z,10.40
2022-12-03T04:41:04.507Z,10.90
2022-12-03T04:46:11.213Z,11.37
2022-12-03T04:51:17.951Z,11.67
2022-12-03T04:56:24.641Z,30.53
2022-12-03T05:01:31.435Z,17.00
2022-12-03T05:06:38.183Z,14.33
2022-12-03T05:11:46.928Z,13.00
2022-12-03T05:16:53.925Z,16.83
2022-12-03T05:22:00.652Z,11.43
2022-12-03T05:27:07.993Z,15.00
2022-12-03T05:32:15.360Z,18.23
2022-12-03T05:37:22.286Z,29.43
2022-12-03T05:42:47.021Z,27.47
2022-12-03T05:47:59.022Z,21.50
2022-12-03T05:53:06.374Z,28.83
2022-12-03T05:58:13.434Z,28.43
2022-12-03T06:03:20.729Z,18.60
2022-12-03T06:08:27.908Z,13.63
2022-12-03T06:13:34.892Z,18.97
2022-12-03T06:18:41.891Z,17.47
2022-12-03T06:23:48.618Z,21.90
2022-12-03T06:28:57.122Z,23.80
2022-12-03T06:34:05.499Z,21.67
2022-12-03T06:39:12.268Z,17.97
2022-12-03T06:44:19.143Z,27.33
2022-12-03T06:49:25.871Z,27.80
2022-12-03T06:54:34.739Z,29.50
2022-12-03T06:59:42.422Z,28.17
2022-12-03T07:04:50.371Z,24.80
2022-12-03T07:09:57.417Z,22.60
2022-12-03T07:15:04.735Z,18.17
2022-12-03T07:20:13.127Z,27.73
2022-12-03T07:25:23.733Z,14.33
2022-12-03T07:30:31.172Z,25.27
2022-12-03T07:35:37.925Z,35.50
2022-12-03T07:40:45.745Z,13.23
2022-12-03T07:45:53.966Z,17.67
2022-12-03T07:51:00.812Z,24.27
2022-12-03T07:56:08.355Z,24.20
2022-12-03T08:01:15.252Z,30.43
2022-12-03T08:06:23.561Z,23.77
2022-12-03T08:11:31.739Z,18.03
2022-12-03T08:16:41.197Z,10.30
2022-12-03T08:21:48.601Z,14.70
2022-12-03T08:26:55.342Z,12.97
2022-12-03T08:32:02.129Z,11.00
2022-12-03T08:37:20.753Z,10.60
2022-12-03T08:42:44.404Z,10.53
2022-12-03T08:47:51.096Z,8.50
2022-12-03T08:53:36.898Z,9.67
2022-12-03T08:58:50.426Z,17.00
2022-12-03T09:03:59.989Z,9.40
2022-12-03T09:09:07.043Z,8.73
2022-12-03T09:14:18.513Z,8.93
2022-12-03T09:19:25.233Z,9.57
2022-12-03T09:24:31.997Z,10.93
2022-12-03T09:29:38.927Z,11.13
2022-12-03T09:34:45.679Z,10.90
2022-12-03T09:39:53.174Z,11.90
2022-12-03T09:45:00.247Z,10.60
2022-12-03T09:50:10.714Z,11.80
2022-12-03T09:55:22.315Z,10.63
2022-12-03T10:00:31.748Z,10.10
2022-12-03T10:05:41.480Z,19.00
2022-12-03T10:10:47.754Z,16.73
2022-12-03T10:15:58.373Z,10.80
2022-12-03T10:21:07.220Z,9.87
2022-12-03T10:26:13.773Z,12.83
2022-12-03T10:31:21.067Z,11.47
2022-12-03T10:36:29.476Z,17.43
2022-12-03T10:41:38.425Z,13.23
2022-12-03T10:46:46.922Z,12.67
2022-12-03T10:51:54.223Z,10.70
2022-12-03T10:57:01.536Z,13.77
2022-12-03T11:02:24.325Z,15.27
2022-12-03T11:07:35.805Z,13.47
2022-12-03T11:12:41.141Z,13.43
2022-12-03T11:17:54.195Z,13.97
2022-12-03T11:23:03.215Z,13.27
2022-12-03T11:28:17.224Z,14.93
2022-12-03T11:33:33.739Z,12.37
2022-12-03T11:38:52.201Z,13.67
2022-12-03T11:49:35.869Z,14.13
2022-12-03T11:54:42.735Z,20.40
2022-12-03T12:00:23.694Z,12.07
2022-12-03T12:05:35.439Z,18.73
2022-12-03T12:10:49.690Z,20.37
2022-12-03T12:15:57.850Z,17.97
2022-12-03T12:21:50.464Z,23.37
2022-12-03T12:26:58.991Z,19.70
2022-12-03T12:32:15.837Z,20.17
2022-12-03T12:37:35.578Z,25.53
2022-12-03T12:42:58.677Z,14.23
2022-12-03T12:48:24.525Z,15.93
2022-12-03T12:53:37.027Z,14.30
2022-12-03T12:58:48.328Z,16.63
2022-12-03T13:03:58.186Z,15.97
2022-12-03T13:09:05.372Z,15.77
2022-12-03T13:14:25.475Z,25.70
2022-12-03T13:19:46.214Z,18.20
2022-12-03T13:24:48.306Z,24.43
2022-12-03T13:30:02.153Z,14.73
2022-12-03T13:35:44.020Z,22.33
2022-12-03T13:40:55.536Z,22.90
2022-12-03T13:46:02.918Z,23.87
2022-12-03T13:51:22.907Z,20.60
2022-12-03T13:56:36.215Z,18.70
2022-12-03T14:01:45.006Z,22.98
2022-12-03T14:07:11.090Z,27.27
2022-12-03T14:12:26.757Z,20.60
2022-12-03T14:17:34.253Z,20.87
2022-12-03T14:22:41.322Z,18.63
2022-12-03T14:27:49.939Z,41.37
2022-12-03T14:32:59.355Z,20.07
2022-12-03T14:38:10.285Z,24.77
2022-12-03T14:43:18.100Z,19.73
2022-12-03T14:48:25.281Z,32.90
2022-12-03T14:53:32.270Z,20.83
2022-12-03T14:58:41.308Z,19.10
2022-12-03T15:03:48.379Z,16.00
2022-12-03T15:08:55.524Z,14.20
2022-12-03T15:14:02.371Z,18.90
2022-12-03T15:19:10.449Z,16.50
2022-12-03T15:24:19.813Z,18.53
2022-12-03T15:29:27.901Z,19.50
2022-12-03T15:34:35.857Z,16.27
2022-12-03T15:39:48.626Z,17.03
2022-12-03T15:44:56.559Z,14.03
2022-12-03T15:50:08.512Z,17.83
2022-12-03T15:55:24.367Z,19.67
2022-12-03T16:00:32.049Z,16.40
2022-12-03T16:05:40.727Z,15.90
2022-12-03T16:10:50.127Z,16.83
2022-12-03T16:15:59.020Z,20.77
2022-12-03T16:21:06.473Z,17.23
2022-12-03T16:26:13.466Z,18.97
2022-12-03T16:31:20.917Z,19.33
2022-12-03T16:36:27.857Z,15.77
2022-12-03T16:41:34.665Z,20.07
2022-12-03T16:46:41.475Z,17.30
2022-12-03T16:51:49.043Z,18.23
2022-12-03T16:56:55.738Z,21.57
2022-12-03T17:02:02.784Z,23.63
2022-12-03T17:07:09.539Z,30.73
2022-12-03T17:12:18.205Z,41.47
2022-12-03T17:17:24.712Z,18.73
2022-12-03T17:22:31.947Z,40.30
2022-12-03T17:27:45.167Z,36.03
2022-12-03T17:32:52.899Z,40.70
2022-12-03T17:37:59.679Z,37.30
2022-12-03T17:43:06.504Z,31.03
2022-12-03T17:48:13.229Z,47.33
2022-12-03T17:53:20.200Z,42.47
2022-12-03T17:58:28.224Z,50.93
2022-12-03T18:03:35.829Z,23.27
2022-12-03T18:08:44.454Z,20.17
2022-12-03T18:13:55.265Z,23.60
2022-12-03T18:19:06.225Z,20.17
2022-12-03T18:24:11.757Z,24.87
2022-12-03T18:29:19.609Z,25.03
2022-12-03T18:34:26.775Z,29.63
2022-12-03T18:39:37.736Z,20.07
2022-12-03T18:44:49.669Z,18.67
2022-12-03T18:49:56.240Z,18.70
2022-12-03T18:55:04.033Z,24.47
2022-12-03T19:00:13.934Z,25.03
2022-12-03T19:05:21.936Z,19.10
2022-12-03T19:10:29.481Z,16.63
2022-12-03T19:15:41.705Z,13.17
2022-12-03T19:20:49.470Z,16.63
2022-12-03T19:26:06.613Z,13.43
2022-12-03T19:31:17.375Z,13.47
2022-12-03T19:36:31.244Z,13.67
2022-12-03T19:41:38.384Z,8.50
2022-12-03T19:46:46.295Z,11.73
2022-12-03T19:51:55.949Z,10.57
2022-12-03T19:57:02.194Z,16.87
2022-12-03T20:02:11.381Z,11.40
2022-12-03T20:07:20.912Z,15.50
2022-12-03T20:12:28.173Z,9.10
2022-12-03T20:17:38.557Z,10.60
2022-12-03T20:22:48.224Z,18.60
2022-12-03T20:27:57.229Z,18.03
2022-12-03T20:33:04.454Z,19.60
2022-12-03T20:38:17.006Z,22.70
2022-12-03T20:43:28.751Z,19.20
2022-12-03T20:48:36.955Z,25.63
2022-12-03T20:53:44.577Z,22.57
2022-12-03T20:58:57.574Z,20.17
2022-12-03T21:04:08.054Z,23.43
2022-12-03T21:09:17.087Z,20.60
2022-12-03T21:14:24.903Z,24.67
2022-12-03T21:19:36.488Z,23.83
2022-12-03T21:24:44.764Z,20.93
2022-12-03T21:29:55.208Z,17.73
2022-12-03T21:35:04.050Z,13.80
2022-12-03T21:40:16.035Z,13.13
2022-12-03T21:45:25.182Z,11.73
2022-12-03T21:50:34.701Z,11.53
2022-12-03T21:55:45.125Z,10.63
2022-12-03T22:00:57.631Z,12.07
2022-12-03T22:06:06.381Z,13.23
2022-12-03T22:11:24.275Z,10.47
2022-12-03T22:16:36.299Z,8.70
2022-12-03T22:22:12.827Z,8.67
2022-12-03T22:27:20.436Z,11.60
2022-12-03T22:32:29.930Z,9.57
2022-12-03T22:37:36.909Z,7.73
2022-12-03T22:42:50.637Z,7.47
2022-12-03T22:47:52.805Z,9.37
2022-12-03T22:52:59.629Z,25.93
2022-12-03T22:58:08.274Z,16.43
2022-12-03T23:03:17.911Z,10.83
2022-12-03T23:08:25.617Z,8.37
2022-12-03T23:13:32.453Z,8.57
2022-12-03T23:18:39.424Z,14.87
2022-12-03T23:23:46.709Z,16.97
2022-12-03T23:28:54.086Z,12.53
2022-12-03T23:34:02.545Z,9.07
2022-12-03T23:39:09.691Z,7.80
2022-12-03T23:44:16.890Z,22.13
2022-12-03T23:49:24.678Z,29.07
2022-12-03T23:54:31.900Z,19.93
2022-12-03T23:59:40.109Z,17.77
